sensor_id;sensor_type;location;lat;lon;timestamp;temperature;humidity
40556;DHT22;26250;45.422;11.100;2022-10-22T10:52:34;22.60;91.50
40556;DHT22;26250;45.422;11.100;2022-10-22T11:00:09;22.60;91.30
40556;DHT22;26250;45.422;11.100;2022-10-22T11:10:50;22.80;91.20
40556;DHT22;26250;45.422;11.100;2022-10-22T11:13:30;22.80;90.90
40556;DHT22;26250;45.422;11.100;2022-10-22T11:19:33;22.90;91.10
40556;DHT22;26250;45.422;11.100;2022-10-22T11:22:10;22.90;91.10
40556;DHT22;26250;45.422;11.100;2022-10-22T11:27:33;23.00;91.30
40556;DHT22;26250;45.422;11.100;2022-10-22T11:30:11;23.00;91.70
40556;DHT22;26250;45.422;11.100;2022-10-22T11:32:40;23.10;91.90
40556;DHT22;26250;45.422;11.100;2022-10-22T11:35:17;23.10;91.30
40556;DHT22;26250;45.422;11.100;2022-10-22T11:37:51;23.10;90.10
40556;DHT22;26250;45.422;11.100;2022-10-22T11:40:36;23.10;90.30
40556;DHT22;26250;45.422;11.100;2022-10-22T11:43:10;23.10;90.00
40556;DHT22;26250;45.422;11.100;2022-10-22T11:45:41;23.10;91.50
40556;DHT22;26250;45.422;11.100;2022-10-22T11:50:57;23.20;90.20
40556;DHT22;26250;45.422;11.100;2022-10-22T11:53:36;23.20;90.40
40556;DHT22;26250;45.422;11.100;2022-10-22T12:03:38;23.10;90.40
40556;DHT22;26250;45.422;11.100;2022-10-22T12:14:26;22.90;90.80
40556;DHT22;26250;45.422;11.100;2022-10-22T12:19:42;22.80;91.40
40556;DHT22;26250;45.422;11.100;2022-10-22T12:24:38;22.80;91.60
40556;DHT22;26250;45.422;11.100;2022-10-22T12:30:19;22.70;91.80
40556;DHT22;26250;45.422;11.100;2022-10-22T12:32:55;22.70;91.70
40556;DHT22;26250;45.422;11.100;2022-10-22T12:35:30;22.70;91.60
40556;DHT22;26250;45.422;11.100;2022-10-22T12:38:11;22.70;91.60
40556;DHT22;26250;45.422;11.100;2022-10-22T12:40:40;22.70;91.30
40556;DHT22;26250;45.422;11.100;2022-10-22T12:43:16;22.70;91.40
40556;DHT22;26250;45.422;11.100;2022-10-22T12:45:45;22.70;92.10
40556;DHT22;26250;45.422;11.100;2022-10-22T12:48:27;22.70;92.00
40556;DHT22;26250;45.422;11.100;2022-10-22T12:51:00;22.70;91.80
40556;DHT22;26250;45.422;11.100;2022-10-22T12:53:30;22.70;91.90
40556;DHT22;26250;45.422;11.100;2022-10-22T12:56:12;22.60;90.90
40556;DHT22;26250;45.422;11.100;2022-10-22T13:01:19;22.80;90.60
40556;DHT22;26250;45.422;11.100;2022-10-22T13:03:49;22.80;90.90
40556;DHT22;26250;45.422;11.100;2022-10-22T13:08:55;22.90;89.60
40556;DHT22;26250;45.422;11.100;2022-10-22T13:11:23;22.90;90.30
40556;DHT22;26250;45.422;11.100;2022-10-22T13:13:49;22.80;89.00
40556;DHT22;26250;45.422;11.100;2022-10-22T13:16:22;22.90;91.00
40556;DHT22;26250;45.422;11.100;2022-10-22T13:18:51;22.90;90.20
40556;DHT22;26250;45.422;11.100;2022-10-22T13:21:22;22.90;88.10
40556;DHT22;26250;45.422;11.100;2022-10-22T13:23:55;22.80;88.30
40556;DHT22;26250;45.422;11.100;2022-10-22T13:26:28;22.90;88.90
40556;DHT22;26250;45.422;11.100;2022-10-22T13:28:57;22.80;89.60
40556;DHT22;26250;45.422;11.100;2022-10-22T13:31:26;22.90;89.60
40556;DHT22;26250;45.422;11.100;2022-10-22T13:34:05;22.80;90.30
40556;DHT22;26250;45.422;11.100;2022-10-22T13:36:39;22.90;89.50
40556;DHT22;26250;45.422;11.100;2022-10-22T13:39:14;22.80;89.60
40556;DHT22;26250;45.422;11.100;2022-10-22T13:41:42;22.90;89.70
40556;DHT22;26250;45.422;11.100;2022-10-22T13:44:09;22.90;89.80
40556;DHT22;26250;45.422;11.100;2022-10-22T13:46:36;22.90;89.80
40556;DHT22;26250;45.422;11.100;2022-10-22T13:49:19;22.90;90.00
40556;DHT22;26250;45.422;11.100;2022-10-22T13:51:46;22.90;89.40
40556;DHT22;26250;45.422;11.100;2022-10-22T13:54:16;22.90;89.40
40556;DHT22;26250;45.422;11.100;2022-10-22T13:56:44;22.80;89.60
40556;DHT22;26250;45.422;11.100;2022-10-22T13:59:11;22.90;89.40
40556;DHT22;26250;45.422;11.100;2022-10-22T14:01:38;22.90;90.00
40556;DHT22;26250;45.422;11.100;2022-10-22T14:04:11;22.80;89.90
40556;DHT22;26250;45.422;11.100;2022-10-22T14:06:39;22.70;90.10
40556;DHT22;26250;45.422;11.100;2022-10-22T14:09:09;22.80;90.30
40556;DHT22;26250;45.422;11.100;2022-10-22T14:11:39;22.80;90.40
40556;DHT22;26250;45.422;11.100;2022-10-22T14:14:05;22.80;90.50
40556;DHT22;26250;45.422;11.100;2022-10-22T14:16:36;22.90;90.50
40556;DHT22;26250;45.422;11.100;2022-10-22T14:19:05;22.90;90.30
40556;DHT22;26250;45.422;11.100;2022-10-22T14:21:35;22.90;90.30
40556;DHT22;26250;45.422;11.100;2022-10-22T14:24:03;22.90;90.40
40556;DHT22;26250;45.422;11.100;2022-10-22T14:26:35;22.90;90.40
40556;DHT22;26250;45.422;11.100;2022-10-22T14:29:02;22.90;90.40
40556;DHT22;26250;45.422;11.100;2022-10-22T14:31:39;22.90;90.40
40556;DHT22;26250;45.422;11.100;2022-10-22T14:34:10;22.90;90.50
40556;DHT22;26250;45.422;11.100;2022-10-22T14:36:37;22.90;91.50
40556;DHT22;26250;45.422;11.100;2022-10-22T14:39:04;23.00;92.70
40556;DHT22;26250;45.422;11.100;2022-10-22T14:41:34;22.90;93.30
40556;DHT22;26250;45.422;11.100;2022-10-22T14:44:00;22.80;93.40
40556;DHT22;26250;45.422;11.100;2022-10-22T14:46:27;22.80;93.90
40556;DHT22;26250;45.422;11.100;2022-10-22T14:48:54;22.80;93.80
40556;DHT22;26250;45.422;11.100;2022-10-22T14:51:21;22.80;93.80
40556;DHT22;26250;45.422;11.100;2022-10-22T14:53:49;22.80;93.70
40556;DHT22;26250;45.422;11.100;2022-10-22T14:56:18;22.70;93.80
40556;DHT22;26250;45.422;11.100;2022-10-22T14:58:50;22.70;94.00
40556;DHT22;26250;45.422;11.100;2022-10-22T15:01:19;22.70;94.10
40556;DHT22;26250;45.422;11.100;2022-10-22T15:03:45;22.70;94.00
40556;DHT22;26250;45.422;11.100;2022-10-22T15:06:12;22.70;94.10
40556;DHT22;26250;45.422;11.100;2022-10-22T15:08:39;22.70;94.10
40556;DHT22;26250;45.422;11.100;2022-10-22T15:11:09;22.70;94.00
40556;DHT22;26250;45.422;11.100;2022-10-22T15:13:36;22.70;93.70
40556;DHT22;26250;45.422;11.100;2022-10-22T15:16:07;22.60;93.60
40556;DHT22;26250;45.422;11.100;2022-10-22T15:18:35;22.60;93.70
40556;DHT22;26250;45.422;11.100;2022-10-22T15:21:05;22.60;93.70
40556;DHT22;26250;45.422;11.100;2022-10-22T15:23:32;22.60;93.90
40556;DHT22;26250;45.422;11.100;2022-10-22T15:25:59;22.60;93.90
40556;DHT22;26250;45.422;11.100;2022-10-22T15:28:26;22.60;93.90
40556;DHT22;26250;45.422;11.100;2022-10-22T15:30:58;22.60;93.90
40556;DHT22;26250;45.422;11.100;2022-10-22T15:33:25;22.50;94.10
40556;DHT22;26250;45.422;11.100;2022-10-22T15:35:53;22.50;94.20
40556;DHT22;26250;45.422;11.100;2022-10-22T15:38:20;22.50;94.40
40556;DHT22;26250;45.422;11.100;2022-10-22T15:40:47;22.40;94.40
40556;DHT22;26250;45.422;11.100;2022-10-22T15:43:14;22.40;94.70
40556;DHT22;26250;45.422;11.100;2022-10-22T15:45:41;22.30;94.70
40556;DHT22;26250;45.422;11.100;2022-10-22T15:48:08;22.30;94.90
40556;DHT22;26250;45.422;11.100;2022-10-22T15:50:39;22.20;95.10
40556;DHT22;26250;45.422;11.100;2022-10-22T15:53:05;22.20;95.20
40556;DHT22;26250;45.422;11.100;2022-10-22T15:55:32;22.10;95.30
40556;DHT22;26250;45.422;11.100;2022-10-22T15:57:59;22.00;95.40
40556;DHT22;26250;45.422;11.100;2022-10-22T16:00:29;22.00;95.40
40556;DHT22;26250;45.422;11.100;2022-10-22T16:02:57;22.10;95.50
40556;DHT22;26250;45.422;11.100;2022-10-22T16:05:29;22.00;95.50
40556;DHT22;26250;45.422;11.100;2022-10-22T16:07:56;22.00;95.60
40556;DHT22;26250;45.422;11.100;2022-10-22T16:10:22;21.90;95.60
40556;DHT22;26250;45.422;11.100;2022-10-22T16:12:50;21.90;95.70
40556;DHT22;26250;45.422;11.100;2022-10-22T16:15:17;21.90;95.80
40556;DHT22;26250;45.422;11.100;2022-10-22T16:17:44;21.80;96.00
40556;DHT22;26250;45.422;11.100;2022-10-22T16:20:10;21.80;96.00
40556;DHT22;26250;45.422;11.100;2022-10-22T16:22:38;21.70;96.10
40556;DHT22;26250;45.422;11.100;2022-10-22T16:25:06;21.70;96.20
40556;DHT22;26250;45.422;11.100;2022-10-22T16:27:33;21.60;96.40
40556;DHT22;26250;45.422;11.100;2022-10-22T16:30:00;21.40;96.60
40556;DHT22;26250;45.422;11.100;2022-10-22T16:32:26;21.30;96.80
40556;DHT22;26250;45.422;11.100;2022-10-22T16:34:53;21.30;96.50
40556;DHT22;26250;45.422;11.100;2022-10-22T16:37:23;21.40;96.50
40556;DHT22;26250;45.422;11.100;2022-10-22T16:39:50;21.30;96.90
40556;DHT22;26250;45.422;11.100;2022-10-22T16:42:17;21.20;97.10
40556;DHT22;26250;45.422;11.100;2022-10-22T16:44:43;21.10;97.30
40556;DHT22;26250;45.422;11.100;2022-10-22T16:47:11;21.00;97.30
40556;DHT22;26250;45.422;11.100;2022-10-22T16:49:38;21.00;97.30
40556;DHT22;26250;45.422;11.100;2022-10-22T16:52:05;21.00;97.10
40556;DHT22;26250;45.422;11.100;2022-10-22T16:54:32;21.00;97.20
40556;DHT22;26250;45.422;11.100;2022-10-22T16:56:59;21.00;97.10
40556;DHT22;26250;45.422;11.100;2022-10-22T16:59:25;20.90;97.10
40556;DHT22;26250;45.422;11.100;2022-10-22T17:01:52;20.80;97.40
40556;DHT22;26250;45.422;11.100;2022-10-22T17:04:20;20.80;97.20
40556;DHT22;26250;45.422;11.100;2022-10-22T17:06:49;20.80;97.10
40556;DHT22;26250;45.422;11.100;2022-10-22T17:09:16;20.80;97.00
40556;DHT22;26250;45.422;11.100;2022-10-22T17:11:43;20.80;97.10
40556;DHT22;26250;45.422;11.100;2022-10-22T17:14:10;20.80;97.10
40556;DHT22;26250;45.422;11.100;2022-10-22T17:16:37;20.70;97.20
40556;DHT22;26250;45.422;11.100;2022-10-22T17:19:04;20.70;97.10
40556;DHT22;26250;45.422;11.100;2022-10-22T17:21:31;20.70;97.30
40556;DHT22;26250;45.422;11.100;2022-10-22T17:23:59;20.60;97.30
40556;DHT22;26250;45.422;11.100;2022-10-22T17:26:26;20.50;97.80
40556;DHT22;26250;45.422;11.100;2022-10-22T17:28:54;20.30;97.60
40556;DHT22;26250;45.422;11.100;2022-10-22T17:31:26;20.30;97.40
40556;DHT22;26250;45.422;11.100;2022-10-22T17:33:55;20.40;96.90
40556;DHT22;26250;45.422;11.100;2022-10-22T17:36:23;20.50;96.80
40556;DHT22;26250;45.422;11.100;2022-10-22T17:38:55;20.50;96.70
40556;DHT22;26250;45.422;11.100;2022-10-22T17:41:24;20.50;96.80
40556;DHT22;26250;45.422;11.100;2022-10-22T17:43:52;20.40;97.00
40556;DHT22;26250;45.422;11.100;2022-10-22T17:46:23;20.40;96.90
40556;DHT22;26250;45.422;11.100;2022-10-22T17:48:58;20.40;96.70
40556;DHT22;26250;45.422;11.100;2022-10-22T17:51:29;20.30;96.90
40556;DHT22;26250;45.422;11.100;2022-10-22T17:53:56;20.00;97.10
40556;DHT22;26250;45.422;11.100;2022-10-22T17:56:26;19.90;97.30
40556;DHT22;26250;45.422;11.100;2022-10-22T17:58:54;19.90;97.20
40556;DHT22;26250;45.422;11.100;2022-10-22T18:01:30;20.00;97.10
40556;DHT22;26250;45.422;11.100;2022-10-22T18:04:03;20.00;97.10
40556;DHT22;26250;45.422;11.100;2022-10-22T18:06:31;20.10;97.10
40556;DHT22;26250;45.422;11.100;2022-10-22T18:08:58;20.00;96.90
40556;DHT22;26250;45.422;11.100;2022-10-22T18:11:26;20.00;96.90
40556;DHT22;26250;45.422;11.100;2022-10-22T18:13:55;20.00;97.00
40556;DHT22;26250;45.422;11.100;2022-10-22T18:16:23;20.00;97.20
40556;DHT22;26250;45.422;11.100;2022-10-22T18:18:52;20.00;96.70
40556;DHT22;26250;45.422;11.100;2022-10-22T18:21:21;20.00;96.70
40556;DHT22;26250;45.422;11.100;2022-10-22T18:23:52;20.00;96.70
40556;DHT22;26250;45.422;11.100;2022-10-22T18:26:20;20.00;96.70
40556;DHT22;26250;45.422;11.100;2022-10-22T18:28:53;19.80;96.70
40556;DHT22;26250;45.422;11.100;2022-10-22T18:31:24;19.80;96.40
40556;DHT22;26250;45.422;11.100;2022-10-22T18:33:51;19.70;96.30
40556;DHT22;26250;45.422;11.100;2022-10-22T18:36:22;19.80;96.50
40556;DHT22;26250;45.422;11.100;2022-10-22T18:38:51;19.70;96.60
40556;DHT22;26250;45.422;11.100;2022-10-22T18:41:19;19.70;96.60
40556;DHT22;26250;45.422;11.100;2022-10-22T18:43:51;19.60;96.70
40556;DHT22;26250;45.422;11.100;2022-10-22T18:46:18;19.50;97.30
40556;DHT22;26250;45.422;11.100;2022-10-22T18:48:45;19.40;97.60
40556;DHT22;26250;45.422;11.100;2022-10-22T18:51:13;19.30;97.60
40556;DHT22;26250;45.422;11.100;2022-10-22T18:53:41;19.30;97.60
40556;DHT22;26250;45.422;11.100;2022-10-22T18:56:28;19.30;97.60
40556;DHT22;26250;45.422;11.100;2022-10-22T18:58:55;19.30;97.40
40556;DHT22;26250;45.422;11.100;2022-10-22T19:01:25;19.20;97.60
40556;DHT22;26250;45.422;11.100;2022-10-22T19:03:56;19.20;97.80
40556;DHT22;26250;45.422;11.100;2022-10-22T19:06:28;19.20;97.70
40556;DHT22;26250;45.422;11.100;2022-10-22T19:09:03;19.20;97.20
40556;DHT22;26250;45.422;11.100;2022-10-22T19:11:31;19.20;97.20
40556;DHT22;26250;45.422;11.100;2022-10-22T19:13:58;19.30;97.30
40556;DHT22;26250;45.422;11.100;2022-10-22T19:16:25;19.30;97.20
40556;DHT22;26250;45.422;11.100;2022-10-22T19:19:02;19.30;97.10
40556;DHT22;26250;45.422;11.100;2022-10-22T19:21:29;19.20;97.50
40556;DHT22;26250;45.422;11.100;2022-10-22T19:23:58;19.10;97.80
40556;DHT22;26250;45.422;11.100;2022-10-22T19:26:26;19.00;97.70
40556;DHT22;26250;45.422;11.100;2022-10-22T19:28:55;19.00;97.60
40556;DHT22;26250;45.422;11.100;2022-10-22T19:31:24;19.00;97.60
40556;DHT22;26250;45.422;11.100;2022-10-22T19:33:51;18.90;97.80
40556;DHT22;26250;45.422;11.100;2022-10-22T19:36:20;18.90;98.30
40556;DHT22;26250;45.422;11.100;2022-10-22T19:38:49;19.00;98.10
40556;DHT22;26250;45.422;11.100;2022-10-22T19:41:18;19.00;98.10
40556;DHT22;26250;45.422;11.100;2022-10-22T19:43:49;19.10;98.10
40556;DHT22;26250;45.422;11.100;2022-10-22T19:46:17;19.10;97.80
40556;DHT22;26250;45.422;11.100;2022-10-22T19:48:44;19.20;97.50
40556;DHT22;26250;45.422;11.100;2022-10-22T19:51:17;19.10;97.40
40556;DHT22;26250;45.422;11.100;2022-10-22T19:53:45;19.20;97.20
40556;DHT22;26250;45.422;11.100;2022-10-22T19:56:11;19.30;97.20
40556;DHT22;26250;45.422;11.100;2022-10-22T19:58:44;19.30;97.40
40556;DHT22;26250;45.422;11.100;2022-10-22T20:01:15;19.30;97.40
40556;DHT22;26250;45.422;11.100;2022-10-22T20:03:43;19.30;97.60
40556;DHT22;26250;45.422;11.100;2022-10-22T20:06:11;19.30;97.50
40556;DHT22;26250;45.422;11.100;2022-10-22T20:08:39;19.30;97.30
40556;DHT22;26250;45.422;11.100;2022-10-22T20:11:09;19.30;97.20
40556;DHT22;26250;45.422;11.100;2022-10-22T20:13:37;19.20;97.30
40556;DHT22;26250;45.422;11.100;2022-10-22T20:16:05;19.20;97.10
40556;DHT22;26250;45.422;11.100;2022-10-22T20:18:32;19.00;97.60
40556;DHT22;26250;45.422;11.100;2022-10-22T20:21:06;19.10;97.60
40556;DHT22;26250;45.422;11.100;2022-10-22T20:23:33;19.10;97.60
40556;DHT22;26250;45.422;11.100;2022-10-22T20:26:00;19.20;97.50
40556;DHT22;26250;45.422;11.100;2022-10-22T20:28:27;19.10;97.80
40556;DHT22;26250;45.422;11.100;2022-10-22T20:30:53;19.00;97.80
40556;DHT22;26250;45.422;11.100;2022-10-22T20:33:20;19.00;97.70
40556;DHT22;26250;45.422;11.100;2022-10-22T20:35:58;18.90;97.80
40556;DHT22;26250;45.422;11.100;2022-10-22T20:38:25;18.90;97.90
40556;DHT22;26250;45.422;11.100;2022-10-22T20:41:06;19.00;97.60
40556;DHT22;26250;45.422;11.100;2022-10-22T20:43:34;19.00;97.30
40556;DHT22;26250;45.422;11.100;2022-10-22T20:46:01;19.00;97.80
40556;DHT22;26250;45.422;11.100;2022-10-22T20:48:29;19.00;97.40
40556;DHT22;26250;45.422;11.100;2022-10-22T20:50:58;19.00;97.40
40556;DHT22;26250;45.422;11.100;2022-10-22T20:53:25;19.10;97.20
40556;DHT22;26250;45.422;11.100;2022-10-22T20:55:56;19.00;97.00
40556;DHT22;26250;45.422;11.100;2022-10-22T20:58:27;18.90;97.00
40556;DHT22;26250;45.422;11.100;2022-10-22T21:00:56;18.70;97.40
40556;DHT22;26250;45.422;11.100;2022-10-22T21:03:26;18.70;97.40
40556;DHT22;26250;45.422;11.100;2022-10-22T21:05:53;18.70;97.40
40556;DHT22;26250;45.422;11.100;2022-10-22T21:08:20;18.80;97.50
40556;DHT22;26250;45.422;11.100;2022-10-22T21:10:47;18.80;97.40
40556;DHT22;26250;45.422;11.100;2022-10-22T21:13:15;18.90;97.70
40556;DHT22;26250;45.422;11.100;2022-10-22T21:15:42;18.90;97.60
40556;DHT22;26250;45.422;11.100;2022-10-22T21:18:09;19.00;97.40
40556;DHT22;26250;45.422;11.100;2022-10-22T21:20:37;18.90;97.50
40556;DHT22;26250;45.422;11.100;2022-10-22T21:23:05;18.80;97.70
40556;DHT22;26250;45.422;11.100;2022-10-22T21:25:32;18.80;97.70
40556;DHT22;26250;45.422;11.100;2022-10-22T21:27:59;18.90;97.70
40556;DHT22;26250;45.422;11.100;2022-10-22T21:30:26;18.90;97.50
40556;DHT22;26250;45.422;11.100;2022-10-22T21:32:53;18.90;97.50
40556;DHT22;26250;45.422;11.100;2022-10-22T21:35:22;18.90;97.40
